sensor_id;sensor_type;location;lat;lon;timestamp;temperature;humidity
6666;DHT22;3369;49.906;8.598;2023-07-13T00:02:21;19.90;75.00
6666;DHT22;3369;49.906;8.598;2023-07-13T00:04:47;19.90;75.80
6666;DHT22;3369;49.906;8.598;2023-07-13T00:07:13;19.90;75.30
6666;DHT22;3369;49.906;8.598;2023-07-13T00:09:40;19.90;75.30
6666;DHT22;3369;49.906;8.598;2023-07-13T00:12:26;19.80;75.30
6666;DHT22;3369;49.906;8.598;2023-07-13T00:14:52;19.80;75.50
6666;DHT22;3369;49.906;8.598;2023-07-13T00:17:17;19.80;75.60
6666;DHT22;3369;49.906;8.598;2023-07-13T00:19:43;19.80;75.70
6666;DHT22;3369;49.906;8.598;2023-07-13T00:22:08;19.80;75.60
6666;DHT22;3369;49.906;8.598;2023-07-13T00:24:34;19.80;75.80
6666;DHT22;3369;49.906;8.598;2023-07-13T00:27:01;19.80;76.00
6666;DHT22;3369;49.906;8.598;2023-07-13T00:29:27;19.80;76.10
6666;DHT22;3369;49.906;8.598;2023-07-13T00:31:52;19.80;76.50
6666;DHT22;3369;49.906;8.598;2023-07-13T00:34:18;19.70;76.70
6666;DHT22;3369;49.906;8.598;2023-07-13T00:36:43;19.70;77.00
6666;DHT22;3369;49.906;8.598;2023-07-13T00:39:09;19.60;77.30
6666;DHT22;3369;49.906;8.598;2023-07-13T00:41:35;19.60;77.60
6666;DHT22;3369;49.906;8.598;2023-07-13T00:44:02;19.50;77.80
6666;DHT22;3369;49.906;8.598;2023-07-13T00:46:30;19.40;77.90
6666;DHT22;3369;49.906;8.598;2023-07-13T00:49:01;19.40;78.10
6666;DHT22;3369;49.906;8.598;2023-07-13T00:51:31;19.30;78.10
6666;DHT22;3369;49.906;8.598;2023-07-13T00:54:00;19.30;78.30
6666;DHT22;3369;49.906;8.598;2023-07-13T00:56:28;19.30;78.50
6666;DHT22;3369;49.906;8.598;2023-07-13T00:58:54;19.20;78.60
6666;DHT22;3369;49.906;8.598;2023-07-13T01:01:20;19.20;78.60
6666;DHT22;3369;49.906;8.598;2023-07-13T01:03:46;19.10;78.60
6666;DHT22;3369;49.906;8.598;2023-07-13T01:06:12;19.10;78.90
6666;DHT22;3369;49.906;8.598;2023-07-13T01:08:38;19.00;79.00
6666;DHT22;3369;49.906;8.598;2023-07-13T01:11:05;19.00;79.10
6666;DHT22;3369;49.906;8.598;2023-07-13T01:13:33;18.90;79.20
6666;DHT22;3369;49.906;8.598;2023-07-13T01:16:04;18.90;79.60
6666;DHT22;3369;49.906;8.598;2023-07-13T01:18:31;18.80;80.50
6666;DHT22;3369;49.906;8.598;2023-07-13T01:20:59;18.70;80.00
6666;DHT22;3369;49.906;8.598;2023-07-13T01:23:26;18.70;80.10
6666;DHT22;3369;49.906;8.598;2023-07-13T01:25:53;18.70;80.30
6666;DHT22;3369;49.906;8.598;2023-07-13T01:28:19;18.70;80.30
6666;DHT22;3369;49.906;8.598;2023-07-13T01:30:46;18.60;80.40
6666;DHT22;3369;49.906;8.598;2023-07-13T01:33:16;18.60;80.70
6666;DHT22;3369;49.906;8.598;2023-07-13T01:35:43;18.50;80.90
6666;DHT22;3369;49.906;8.598;2023-07-13T01:38:10;18.40;81.10
6666;DHT22;3369;49.906;8.598;2023-07-13T01:40:37;18.40;81.20
6666;DHT22;3369;49.906;8.598;2023-07-13T01:43:03;18.40;81.20
6666;DHT22;3369;49.906;8.598;2023-07-13T01:45:28;18.40;81.30
6666;DHT22;3369;49.906;8.598;2023-07-13T01:47:54;18.40;81.30
6666;DHT22;3369;49.906;8.598;2023-07-13T01:50:20;18.40;81.40
6666;DHT22;3369;49.906;8.598;2023-07-13T01:52:46;18.40;81.40
6666;DHT22;3369;49.906;8.598;2023-07-13T01:55:11;18.30;81.70
6666;DHT22;3369;49.906;8.598;2023-07-13T01:57:37;18.30;82.10
6666;DHT22;3369;49.906;8.598;2023-07-13T02:00:04;18.20;82.30
6666;DHT22;3369;49.906;8.598;2023-07-13T02:02:30;18.20;82.70
6666;DHT22;3369;49.906;8.598;2023-07-13T02:04:56;18.10;83.10
6666;DHT22;3369;49.906;8.598;2023-07-13T02:07:22;18.00;83.30
6666;DHT22;3369;49.906;8.598;2023-07-13T02:09:47;17.90;83.70
6666;DHT22;3369;49.906;8.598;2023-07-13T02:12:13;17.90;84.10
6666;DHT22;3369;49.906;8.598;2023-07-13T02:14:38;17.80;84.40
6666;DHT22;3369;49.906;8.598;2023-07-13T02:17:05;17.70;84.70
6666;DHT22;3369;49.906;8.598;2023-07-13T02:19:31;17.60;84.90
6666;DHT22;3369;49.906;8.598;2023-07-13T02:21:56;17.60;85.20
6666;DHT22;3369;49.906;8.598;2023-07-13T02:24:22;17.50;85.30
6666;DHT22;3369;49.906;8.598;2023-07-13T02:26:48;17.50;85.60
6666;DHT22;3369;49.906;8.598;2023-07-13T02:29:13;17.50;85.80
6666;DHT22;3369;49.906;8.598;2023-07-13T02:31:39;17.40;85.80
6666;DHT22;3369;49.906;8.598;2023-07-13T02:34:05;17.40;86.00
6666;DHT22;3369;49.906;8.598;2023-07-13T02:36:31;17.40;86.10
6666;DHT22;3369;49.906;8.598;2023-07-13T02:39:00;17.40;86.10
6666;DHT22;3369;49.906;8.598;2023-07-13T02:41:26;17.40;86.40
6666;DHT22;3369;49.906;8.598;2023-07-13T02:43:52;17.40;86.50
6666;DHT22;3369;49.906;8.598;2023-07-13T02:46:18;17.40;86.80
6666;DHT22;3369;49.906;8.598;2023-07-13T02:48:45;17.30;86.90
6666;DHT22;3369;49.906;8.598;2023-07-13T02:51:11;17.30;86.80
6666;DHT22;3369;49.906;8.598;2023-07-13T02:53:37;17.30;87.00
6666;DHT22;3369;49.906;8.598;2023-07-13T02:56:03;17.20;87.20
6666;DHT22;3369;49.906;8.598;2023-07-13T02:58:30;17.20;87.40
6666;DHT22;3369;49.906;8.598;2023-07-13T03:00:56;17.20;87.50
6666;DHT22;3369;49.906;8.598;2023-07-13T03:03:21;17.20;87.50
6666;DHT22;3369;49.906;8.598;2023-07-13T03:05:47;17.10;87.40
6666;DHT22;3369;49.906;8.598;2023-07-13T03:08:16;17.10;87.60
6666;DHT22;3369;49.906;8.598;2023-07-13T03:10:41;17.10;87.70
6666;DHT22;3369;49.906;8.598;2023-07-13T03:13:07;17.00;87.70
6666;DHT22;3369;49.906;8.598;2023-07-13T03:15:33;17.00;87.80
6666;DHT22;3369;49.906;8.598;2023-07-13T03:17:58;17.00;88.00
6666;DHT22;3369;49.906;8.598;2023-07-13T03:20:24;17.00;88.00
6666;DHT22;3369;49.906;8.598;2023-07-13T03:22:50;17.00;88.10
6666;DHT22;3369;49.906;8.598;2023-07-13T03:25:15;17.00;88.10
6666;DHT22;3369;49.906;8.598;2023-07-13T03:27:41;17.00;88.10
6666;DHT22;3369;49.906;8.598;2023-07-13T03:30:07;17.00;88.00
6666;DHT22;3369;49.906;8.598;2023-07-13T03:32:33;17.00;88.00
6666;DHT22;3369;49.906;8.598;2023-07-13T03:34:59;17.00;88.10
6666;DHT22;3369;49.906;8.598;2023-07-13T03:37:24;17.00;88.20
6666;DHT22;3369;49.906;8.598;2023-07-13T03:39:50;17.00;88.10
6666;DHT22;3369;49.906;8.598;2023-07-13T03:42:16;16.90;88.00
6666;DHT22;3369;49.906;8.598;2023-07-13T03:44:42;16.90;88.10
6666;DHT22;3369;49.906;8.598;2023-07-13T03:47:11;16.90;88.10
6666;DHT22;3369;49.906;8.598;2023-07-13T03:49:37;16.90;88.10
6666;DHT22;3369;49.906;8.598;2023-07-13T03:52:03;16.90;88.20
6666;DHT22;3369;49.906;8.598;2023-07-13T03:54:28;16.90;88.30
6666;DHT22;3369;49.906;8.598;2023-07-13T03:56:54;16.90;88.40
6666;DHT22;3369;49.906;8.598;2023-07-13T03:59:20;16.90;88.40
6666;DHT22;3369;49.906;8.598;2023-07-13T04:01:46;16.90;88.40
6666;DHT22;3369;49.906;8.598;2023-07-13T04:04:11;16.90;88.40
6666;DHT22;3369;49.906;8.598;2023-07-13T04:06:37;16.80;88.40
6666;DHT22;3369;49.906;8.598;2023-07-13T04:09:04;16.80;89.20
6666;DHT22;3369;49.906;8.598;2023-07-13T04:11:31;16.90;88.70
6666;DHT22;3369;49.906;8.598;2023-07-13T04:13:57;16.90;88.70
6666;DHT22;3369;49.906;8.598;2023-07-13T04:16:24;16.90;88.60
6666;DHT22;3369;49.906;8.598;2023-07-13T04:18:50;16.90;88.60
6666;DHT22;3369;49.906;8.598;2023-07-13T04:21:20;17.00;88.60
6666;DHT22;3369;49.906;8.598;2023-07-13T04:23:46;17.00;88.60
6666;DHT22;3369;49.906;8.598;2023-07-13T04:26:12;17.00;88.60
6666;DHT22;3369;49.906;8.598;2023-07-13T04:28:38;17.00;88.50
6666;DHT22;3369;49.906;8.598;2023-07-13T04:31:04;17.00;88.40
6666;DHT22;3369;49.906;8.598;2023-07-13T04:33:30;17.00;88.50
6666;DHT22;3369;49.906;8.598;2023-07-13T04:35:56;17.10;88.50
6666;DHT22;3369;49.906;8.598;2023-07-13T04:38:24;17.10;88.40
6666;DHT22;3369;49.906;8.598;2023-07-13T04:40:50;17.10;88.30
6666;DHT22;3369;49.906;8.598;2023-07-13T04:43:17;17.10;88.20
6666;DHT22;3369;49.906;8.598;2023-07-13T04:45:42;17.10;88.00
6666;DHT22;3369;49.906;8.598;2023-07-13T04:48:08;17.10;87.90
6666;DHT22;3369;49.906;8.598;2023-07-13T04:50:36;17.10;87.90
6666;DHT22;3369;49.906;8.598;2023-07-13T04:53:02;17.10;87.80
6666;DHT22;3369;49.906;8.598;2023-07-13T04:55:29;17.10;88.00
6666;DHT22;3369;49.906;8.598;2023-07-13T04:57:56;17.10;88.10
6666;DHT22;3369;49.906;8.598;2023-07-13T05:00:24;17.10;88.20
6666;DHT22;3369;49.906;8.598;2023-07-13T05:02:50;17.00;88.30
6666;DHT22;3369;49.906;8.598;2023-07-13T05:05:15;17.00;88.60
6666;DHT22;3369;49.906;8.598;2023-07-13T05:07:41;17.00;89.20
6666;DHT22;3369;49.906;8.598;2023-07-13T05:10:07;17.00;89.30
6666;DHT22;3369;49.906;8.598;2023-07-13T05:12:33;17.00;89.60
6666;DHT22;3369;49.906;8.598;2023-07-13T05:14:59;17.00;89.80
6666;DHT22;3369;49.906;8.598;2023-07-13T05:17:24;17.00;89.90
6666;DHT22;3369;49.906;8.598;2023-07-13T05:19:50;17.00;90.00
6666;DHT22;3369;49.906;8.598;2023-07-13T05:22:15;17.00;90.10
6666;DHT22;3369;49.906;8.598;2023-07-13T05:24:41;17.00;90.10
6666;DHT22;3369;49.906;8.598;2023-07-13T05:27:07;17.00;90.10
6666;DHT22;3369;49.906;8.598;2023-07-13T05:29:32;17.10;90.20
6666;DHT22;3369;49.906;8.598;2023-07-13T05:31:58;17.10;90.20
6666;DHT22;3369;49.906;8.598;2023-07-13T05:34:23;17.20;90.60
6666;DHT22;3369;49.906;8.598;2023-07-13T05:36:49;17.30;90.30
6666;DHT22;3369;49.906;8.598;2023-07-13T05:39:15;17.30;90.30
6666;DHT22;3369;49.906;8.598;2023-07-13T05:41:41;17.40;90.20
6666;DHT22;3369;49.906;8.598;2023-07-13T05:44:07;17.50;90.20
6666;DHT22;3369;49.906;8.598;2023-07-13T05:46:32;17.60;90.10
6666;DHT22;3369;49.906;8.598;2023-07-13T05:48:58;17.70;90.10
6666;DHT22;3369;49.906;8.598;2023-07-13T05:51:24;17.80;90.00
6666;DHT22;3369;49.906;8.598;2023-07-13T05:53:50;17.90;89.80
6666;DHT22;3369;49.906;8.598;2023-07-13T05:56:16;18.00;89.20
6666;DHT22;3369;49.906;8.598;2023-07-13T05:58:41;18.20;88.80
6666;DHT22;3369;49.906;8.598;2023-07-13T06:01:11;18.30;88.60
6666;DHT22;3369;49.906;8.598;2023-07-13T06:03:37;18.50;87.80
6666;DHT22;3369;49.906;8.598;2023-07-13T06:06:05;18.80;86.50
6666;DHT22;3369;49.906;8.598;2023-07-13T06:08:31;19.10;85.80
6666;DHT22;3369;49.906;8.598;2023-07-13T06:11:09;19.40;84.10
6666;DHT22;3369;49.906;8.598;2023-07-13T06:13:36;19.80;83.50
6666;DHT22;3369;49.906;8.598;2023-07-13T06:16:03;20.10;82.90
6666;DHT22;3369;49.906;8.598;2023-07-13T06:18:33;20.40;82.30
6666;DHT22;3369;49.906;8.598;2023-07-13T06:20:59;20.50;79.80
6666;DHT22;3369;49.906;8.598;2023-07-13T06:23:25;20.70;80.10
6666;DHT22;3369;49.906;8.598;2023-07-13T06:25:50;20.80;80.30
6666;DHT22;3369;49.906;8.598;2023-07-13T06:28:16;20.90;80.00
6666;DHT22;3369;49.906;8.598;2023-07-13T06:30:42;21.00;80.30
6666;DHT22;3369;49.906;8.598;2023-07-13T06:33:07;21.10;80.20
6666;DHT22;3369;49.906;8.598;2023-07-13T06:35:33;21.20;80.30
6666;DHT22;3369;49.906;8.598;2023-07-13T06:37:59;21.40;79.90
6666;DHT22;3369;49.906;8.598;2023-07-13T06:40:25;21.50;79.20
6666;DHT22;3369;49.906;8.598;2023-07-13T06:42:50;21.70;78.60
6666;DHT22;3369;49.906;8.598;2023-07-13T06:45:16;21.80;77.90
6666;DHT22;3369;49.906;8.598;2023-07-13T06:47:41;21.90;78.00
6666;DHT22;3369;49.906;8.598;2023-07-13T06:50:07;22.10;77.70
6666;DHT22;3369;49.906;8.598;2023-07-13T06:52:33;22.10;76.40
6666;DHT22;3369;49.906;8.598;2023-07-13T06:54:58;22.10;75.80
6666;DHT22;3369;49.906;8.598;2023-07-13T06:57:24;22.20;75.80
6666;DHT22;3369;49.906;8.598;2023-07-13T06:59:50;22.20;75.80
6666;DHT22;3369;49.906;8.598;2023-07-13T07:02:15;22.20;74.90
6666;DHT22;3369;49.906;8.598;2023-07-13T07:04:41;22.20;74.70
6666;DHT22;3369;49.906;8.598;2023-07-13T07:07:06;22.20;74.00
6666;DHT22;3369;49.906;8.598;2023-07-13T07:09:32;22.10;73.50
6666;DHT22;3369;49.906;8.598;2023-07-13T07:11:58;22.10;74.20
6666;DHT22;3369;49.906;8.598;2023-07-13T07:14:23;22.00;73.00
6666;DHT22;3369;49.906;8.598;2023-07-13T07:16:49;22.10;73.20
6666;DHT22;3369;49.906;8.598;2023-07-13T07:19:16;22.10;73.20
6666;DHT22;3369;49.906;8.598;2023-07-13T07:21:41;22.20;73.10
6666;DHT22;3369;49.906;8.598;2023-07-13T07:24:07;22.10;72.60
6666;DHT22;3369;49.906;8.598;2023-07-13T07:26:33;22.20;73.20
6666;DHT22;3369;49.906;8.598;2023-07-13T07:28:59;22.20;73.20
6666;DHT22;3369;49.906;8.598;2023-07-13T07:31:24;22.30;73.30
6666;DHT22;3369;49.906;8.598;2023-07-13T07:33:50;22.20;72.70
6666;DHT22;3369;49.906;8.598;2023-07-13T07:36:16;22.20;73.40
6666;DHT22;3369;49.906;8.598;2023-07-13T07:38:43;22.30;73.40
6666;DHT22;3369;49.906;8.598;2023-07-13T07:41:08;22.30;73.20
6666;DHT22;3369;49.906;8.598;2023-07-13T07:43:34;22.40;74.10
6666;DHT22;3369;49.906;8.598;2023-07-13T07:46:00;22.60;73.50
6666;DHT22;3369;49.906;8.598;2023-07-13T07:48:25;22.70;73.20
6666;DHT22;3369;49.906;8.598;2023-07-13T07:50:51;22.70;72.30
6666;DHT22;3369;49.906;8.598;2023-07-13T07:53:17;22.70;72.00
6666;DHT22;3369;49.906;8.598;2023-07-13T07:55:42;22.70;71.80
6666;DHT22;3369;49.906;8.598;2023-07-13T07:58:08;22.80;72.20
6666;DHT22;3369;49.906;8.598;2023-07-13T08:00:34;22.80;72.10
6666;DHT22;3369;49.906;8.598;2023-07-13T08:03:01;22.90;72.80
6666;DHT22;3369;49.906;8.598;2023-07-13T08:05:27;23.10;72.70
6666;DHT22;3369;49.906;8.598;2023-07-13T08:07:52;23.20;71.80
6666;DHT22;3369;49.906;8.598;2023-07-13T08:10:18;23.30;71.60
6666;DHT22;3369;49.906;8.598;2023-07-13T08:12:44;23.30;71.70
6666;DHT22;3369;49.906;8.598;2023-07-13T08:15:12;23.40;71.10
6666;DHT22;3369;49.906;8.598;2023-07-13T08:17:39;23.40;70.90
6666;DHT22;3369;49.906;8.598;2023-07-13T08:20:05;23.40;71.60
6666;DHT22;3369;49.906;8.598;2023-07-13T08:22:31;23.40;71.30
6666;DHT22;3369;49.906;8.598;2023-07-13T08:24:57;23.50;71.90
6666;DHT22;3369;49.906;8.598;2023-07-13T08:27:23;23.70;72.10
6666;DHT22;3369;49.906;8.598;2023-07-13T08:29:50;23.90;71.80
6666;DHT22;3369;49.906;8.598;2023-07-13T08:32:17;24.00;70.00
6666;DHT22;3369;49.906;8.598;2023-07-13T08:34:43;24.00;70.00
6666;DHT22;3369;49.906;8.598;2023-07-13T08:37:09;24.10;69.60
6666;DHT22;3369;49.906;8.598;2023-07-13T08:39:35;24.10;68.60
6666;DHT22;3369;49.906;8.598;2023-07-13T08:42:07;24.00;68.80
6666;DHT22;3369;49.906;8.598;2023-07-13T08:47:09;23.80;67.20
6666;DHT22;3369;49.906;8.598;2023-07-13T08:49:35;23.70;67.50
6666;DHT22;3369;49.906;8.598;2023-07-13T08:52:06;23.80;68.70
6666;DHT22;3369;49.906;8.598;2023-07-13T08:54:41;23.90;69.20
6666;DHT22;3369;49.906;8.598;2023-07-13T08:57:14;24.10;68.90
6666;DHT22;3369;49.906;8.598;2023-07-13T08:59:40;24.20;67.70
6666;DHT22;3369;49.906;8.598;2023-07-13T09:04:36;24.10;67.30
6666;DHT22;3369;49.906;8.598;2023-07-13T09:09:58;23.90;65.90
6666;DHT22;3369;49.906;8.598;2023-07-13T09:15:26;23.50;67.50
6666;DHT22;3369;49.906;8.598;2023-07-13T09:17:59;23.40;67.80
6666;DHT22;3369;49.906;8.598;2023-07-13T09:20:32;23.40;68.10
6666;DHT22;3369;49.906;8.598;2023-07-13T09:23:01;23.40;68.00
6666;DHT22;3369;49.906;8.598;2023-07-13T09:25:34;23.40;67.60
6666;DHT22;3369;49.906;8.598;2023-07-13T09:28:12;23.40;67.40
6666;DHT22;3369;49.906;8.598;2023-07-13T09:33:24;23.50;66.80
6666;DHT22;3369;49.906;8.598;2023-07-13T09:35:55;23.70;65.70
6666;DHT22;3369;49.906;8.598;2023-07-13T09:38:22;23.80;65.00
6666;DHT22;3369;49.906;8.598;2023-07-13T09:41:19;24.00;64.60
6666;DHT22;3369;49.906;8.598;2023-07-13T09:44:12;24.20;65.50
6666;DHT22;3369;49.906;8.598;2023-07-13T09:46:43;24.40;64.50
6666;DHT22;3369;49.906;8.598;2023-07-13T09:49:10;24.60;65.10
6666;DHT22;3369;49.906;8.598;2023-07-13T09:51:46;24.80;63.00
6666;DHT22;3369;49.906;8.598;2023-07-13T09:54:23;24.80;60.90
6666;DHT22;3369;49.906;8.598;2023-07-13T09:56:54;24.80;61.60
6666;DHT22;3369;49.906;8.598;2023-07-13T09:59:22;24.80;61.90
6666;DHT22;3369;49.906;8.598;2023-07-13T10:01:49;24.70;61.70
6666;DHT22;3369;49.906;8.598;2023-07-13T10:04:18;24.70;61.90
6666;DHT22;3369;49.906;8.598;2023-07-13T10:06:45;24.70;62.40
6666;DHT22;3369;49.906;8.598;2023-07-13T10:09:15;24.70;61.10
6666;DHT22;3369;49.906;8.598;2023-07-13T10:11:41;24.70;61.30
6666;DHT22;3369;49.906;8.598;2023-07-13T10:14:12;24.80;61.50
6666;DHT22;3369;49.906;8.598;2023-07-13T10:16:38;24.80;61.70
6666;DHT22;3369;49.906;8.598;2023-07-13T10:19:21;25.00;60.20
6666;DHT22;3369;49.906;8.598;2023-07-13T10:24:33;25.00;59.60
6666;DHT22;3369;49.906;8.598;2023-07-13T10:27:19;24.90;61.00
6666;DHT22;3369;49.906;8.598;2023-07-13T10:29:50;25.00;60.60
6666;DHT22;3369;49.906;8.598;2023-07-13T10:32:21;25.00;59.40
6666;DHT22;3369;49.906;8.598;2023-07-13T10:34:49;24.90;58.50
6666;DHT22;3369;49.906;8.598;2023-07-13T10:37:22;24.80;58.20
6666;DHT22;3369;49.906;8.598;2023-07-13T10:39:48;24.70;58.00
6666;DHT22;3369;49.906;8.598;2023-07-13T10:42:32;24.60;58.10
6666;DHT22;3369;49.906;8.598;2023-07-13T10:45:00;24.50;58.60
6666;DHT22;3369;49.906;8.598;2023-07-13T10:47:27;24.50;58.80
6666;DHT22;3369;49.906;8.598;2023-07-13T10:49:56;24.40;59.20
6666;DHT22;3369;49.906;8.598;2023-07-13T10:52:45;24.50;59.50
6666;DHT22;3369;49.906;8.598;2023-07-13T10:58:36;24.60;59.50
6666;DHT22;3369;49.906;8.598;2023-07-13T11:03:30;24.50;57.70
6666;DHT22;3369;49.906;8.598;2023-07-13T11:06:29;24.40;57.70
6666;DHT22;3369;49.906;8.598;2023-07-13T11:15:05;24.70;57.90
6666;DHT22;3369;49.906;8.598;2023-07-13T11:22:49;25.40;57.90
6666;DHT22;3369;49.906;8.598;2023-07-13T11:38:22;26.20;54.90
6666;DHT22;3369;49.906;8.598;2023-07-13T11:40:52;26.20;54.50
6666;DHT22;3369;49.906;8.598;2023-07-13T11:43:18;26.10;54.70
6666;DHT22;3369;49.906;8.598;2023-07-13T11:45:44;26.10;54.50
6666;DHT22;3369;49.906;8.598;2023-07-13T11:48:25;26.10;54.80
6666;DHT22;3369;49.906;8.598;2023-07-13T11:51:00;25.90;54.30
6666;DHT22;3369;49.906;8.598;2023-07-13T11:53:30;25.80;55.00
6666;DHT22;3369;49.906;8.598;2023-07-13T11:56:00;25.70;54.10
6666;DHT22;3369;49.906;8.598;2023-07-13T11:58:27;25.70;55.50
6666;DHT22;3369;49.906;8.598;2023-07-13T12:00:55;25.80;56.40
6666;DHT22;3369;49.906;8.598;2023-07-13T12:03:23;26.00;55.30
6666;DHT22;3369;49.906;8.598;2023-07-13T12:06:05;26.20;55.30
6666;DHT22;3369;49.906;8.598;2023-07-13T12:08:37;26.40;55.40
6666;DHT22;3369;49.906;8.598;2023-07-13T12:11:05;26.40;55.50
6666;DHT22;3369;49.906;8.598;2023-07-13T12:13:36;26.30;55.80
6666;DHT22;3369;49.906;8.598;2023-07-13T12:16:07;26.20;56.00
6666;DHT22;3369;49.906;8.598;2023-07-13T12:18:36;25.90;55.70
6666;DHT22;3369;49.906;8.598;2023-07-13T12:21:02;25.70;55.80
6666;DHT22;3369;49.906;8.598;2023-07-13T12:23:32;25.60;57.10
6666;DHT22;3369;49.906;8.598;2023-07-13T12:26:00;25.60;56.90
6666;DHT22;3369;49.906;8.598;2023-07-13T12:28:36;25.60;57.10
6666;DHT22;3369;49.906;8.598;2023-07-13T12:31:15;25.60;57.50
6666;DHT22;3369;49.906;8.598;2023-07-13T12:33:46;25.60;56.90
6666;DHT22;3369;49.906;8.598;2023-07-13T12:36:12;25.50;56.90
6666;DHT22;3369;49.906;8.598;2023-07-13T12:38:38;25.50;55.70
6666;DHT22;3369;49.906;8.598;2023-07-13T12:41:04;25.40;56.30
6666;DHT22;3369;49.906;8.598;2023-07-13T12:43:35;25.40;56.40
6666;DHT22;3369;49.906;8.598;2023-07-13T12:46:17;25.40;57.50
6666;DHT22;3369;49.906;8.598;2023-07-13T12:48:43;25.40;56.10
6666;DHT22;3369;49.906;8.598;2023-07-13T12:51:14;25.40;56.30
6666;DHT22;3369;49.906;8.598;2023-07-13T12:53:48;25.40;56.70
6666;DHT22;3369;49.906;8.598;2023-07-13T12:56:24;25.50;56.60
6666;DHT22;3369;49.906;8.598;2023-07-13T12:58:56;25.50;56.60
6666;DHT22;3369;49.906;8.598;2023-07-13T13:01:22;25.50;56.50
6666;DHT22;3369;49.906;8.598;2023-07-13T13:03:53;25.40;56.40
6666;DHT22;3369;49.906;8.598;2023-07-13T13:08:46;25.30;56.20
6666;DHT22;3369;49.906;8.598;2023-07-13T13:11:14;25.30;56.20
6666;DHT22;3369;49.906;8.598;2023-07-13T13:13:44;25.30;56.70
6666;DHT22;3369;49.906;8.598;2023-07-13T13:18:51;25.20;56.80
6666;DHT22;3369;49.906;8.598;2023-07-13T13:21:18;25.20;57.20
6666;DHT22;3369;49.906;8.598;2023-07-13T13:23:44;25.10;57.30
6666;DHT22;3369;49.906;8.598;2023-07-13T13:26:12;25.10;57.70
6666;DHT22;3369;49.906;8.598;2023-07-13T13:28:38;25.20;57.20
6666;DHT22;3369;49.906;8.598;2023-07-13T13:31:04;25.10;56.90
6666;DHT22;3369;49.906;8.598;2023-07-13T13:33:30;25.20;57.00
6666;DHT22;3369;49.906;8.598;2023-07-13T13:35:56;25.20;57.00
6666;DHT22;3369;49.906;8.598;2023-07-13T13:38:26;25.20;57.20
6666;DHT22;3369;49.906;8.598;2023-07-13T13:40:52;25.10;57.10
6666;DHT22;3369;49.906;8.598;2023-07-13T13:43:22;25.10;57.70
6666;DHT22;3369;49.906;8.598;2023-07-13T13:45:52;25.20;57.70
6666;DHT22;3369;49.906;8.598;2023-07-13T13:48:25;25.20;57.30
6666;DHT22;3369;49.906;8.598;2023-07-13T13:50:56;25.20;57.70
6666;DHT22;3369;49.906;8.598;2023-07-13T13:53:21;25.10;57.50
6666;DHT22;3369;49.906;8.598;2023-07-13T13:55:49;25.00;56.90
6666;DHT22;3369;49.906;8.598;2023-07-13T13:58:15;24.90;57.20
6666;DHT22;3369;49.906;8.598;2023-07-13T14:00:41;24.80;57.20
6666;DHT22;3369;49.906;8.598;2023-07-13T14:03:15;24.80;57.50
6666;DHT22;3369;49.906;8.598;2023-07-13T14:05:42;24.80;57.90
6666;DHT22;3369;49.906;8.598;2023-07-13T14:08:26;24.80;57.80
6666;DHT22;3369;49.906;8.598;2023-07-13T14:10:55;24.90;58.50
6666;DHT22;3369;49.906;8.598;2023-07-13T14:13:26;25.00;58.50
6666;DHT22;3369;49.906;8.598;2023-07-13T14:15:53;25.00;58.20
6666;DHT22;3369;49.906;8.598;2023-07-13T14:18:20;25.00;57.70
6666;DHT22;3369;49.906;8.598;2023-07-13T14:20:47;25.00;57.70
6666;DHT22;3369;49.906;8.598;2023-07-13T14:23:14;24.90;57.60
6666;DHT22;3369;49.906;8.598;2023-07-13T14:25:41;24.80;57.90
6666;DHT22;3369;49.906;8.598;2023-07-13T14:28:23;24.80;58.10
6666;DHT22;3369;49.906;8.598;2023-07-13T14:30:49;24.80;57.70
6666;DHT22;3369;49.906;8.598;2023-07-13T14:33:15;24.80;58.10
6666;DHT22;3369;49.906;8.598;2023-07-13T14:35:41;24.80;58.30
6666;DHT22;3369;49.906;8.598;2023-07-13T14:38:11;24.90;58.90
6666;DHT22;3369;49.906;8.598;2023-07-13T14:40:38;24.90;58.60
6666;DHT22;3369;49.906;8.598;2023-07-13T14:43:03;25.00;58.20
6666;DHT22;3369;49.906;8.598;2023-07-13T14:45:30;24.90;57.70
6666;DHT22;3369;49.906;8.598;2023-07-13T14:47:57;24.90;57.80
6666;DHT22;3369;49.906;8.598;2023-07-13T14:50:31;24.80;57.70
6666;DHT22;3369;49.906;8.598;2023-07-13T14:52:57;24.80;57.50
6666;DHT22;3369;49.906;8.598;2023-07-13T14:55:23;24.80;57.90
6666;DHT22;3369;49.906;8.598;2023-07-13T14:57:51;24.70;57.30
6666;DHT22;3369;49.906;8.598;2023-07-13T15:00:20;24.70;57.10
6666;DHT22;3369;49.906;8.598;2023-07-13T15:02:51;24.70;57.20
6666;DHT22;3369;49.906;8.598;2023-07-13T15:05:21;24.70;57.10
6666;DHT22;3369;49.906;8.598;2023-07-13T15:07:48;24.70;57.40
6666;DHT22;3369;49.906;8.598;2023-07-13T15:10:23;24.60;57.60
6666;DHT22;3369;49.906;8.598;2023-07-13T15:12:51;24.60;58.00
6666;DHT22;3369;49.906;8.598;2023-07-13T15:15:17;24.60;58.40
6666;DHT22;3369;49.906;8.598;2023-07-13T15:17:45;24.50;58.40
6666;DHT22;3369;49.906;8.598;2023-07-13T15:20:28;24.40;58.60
6666;DHT22;3369;49.906;8.598;2023-07-13T15:22:55;24.40;58.70
6666;DHT22;3369;49.906;8.598;2023-07-13T15:25:23;24.40;58.70
6666;DHT22;3369;49.906;8.598;2023-07-13T15:27:50;24.40;59.40
6666;DHT22;3369;49.906;8.598;2023-07-13T15:30:16;24.30;58.50
6666;DHT22;3369;49.906;8.598;2023-07-13T15:32:43;24.30;58.30
6666;DHT22;3369;49.906;8.598;2023-07-13T15:35:17;24.30;58.60
6666;DHT22;3369;49.906;8.598;2023-07-13T15:37:44;24.40;58.90
6666;DHT22;3369;49.906;8.598;2023-07-13T15:40:11;24.30;58.90
6666;DHT22;3369;49.906;8.598;2023-07-13T15:42:38;24.40;59.50
6666;DHT22;3369;49.906;8.598;2023-07-13T15:45:19;24.30;58.50
6666;DHT22;3369;49.906;8.598;2023-07-13T15:47:48;24.40;58.80
6666;DHT22;3369;49.906;8.598;2023-07-13T15:50:22;24.40;58.80
6666;DHT22;3369;49.906;8.598;2023-07-13T15:52:52;24.40;59.00
6666;DHT22;3369;49.906;8.598;2023-07-13T15:55:18;24.40;58.90
6666;DHT22;3369;49.906;8.598;2023-07-13T15:57:52;24.50;59.00
6666;DHT22;3369;49.906;8.598;2023-07-13T16:00:22;24.50;59.00
6666;DHT22;3369;49.906;8.598;2023-07-13T16:02:49;24.50;59.50
6666;DHT22;3369;49.906;8.598;2023-07-13T16:05:15;24.50;59.10
6666;DHT22;3369;49.906;8.598;2023-07-13T16:07:43;24.50;59.00
6666;DHT22;3369;49.906;8.598;2023-07-13T16:10:14;24.40;59.00
6666;DHT22;3369;49.906;8.598;2023-07-13T16:12:40;24.50;59.40
6666;DHT22;3369;49.906;8.598;2023-07-13T16:15:16;24.50;59.50
6666;DHT22;3369;49.906;8.598;2023-07-13T16:17:45;24.60;59.50
6666;DHT22;3369;49.906;8.598;2023-07-13T16:20:12;24.60;59.50
6666;DHT22;3369;49.906;8.598;2023-07-13T16:22:39;24.70;57.90
6666;DHT22;3369;49.906;8.598;2023-07-13T16:25:16;24.70;57.50
6666;DHT22;3369;49.906;8.598;2023-07-13T16:27:44;24.80;57.50
6666;DHT22;3369;49.906;8.598;2023-07-13T16:30:15;24.70;57.50
6666;DHT22;3369;49.906;8.598;2023-07-13T16:32:44;24.70;57.40
6666;DHT22;3369;49.906;8.598;2023-07-13T16:35:09;24.70;57.20
6666;DHT22;3369;49.906;8.598;2023-07-13T16:37:37;24.60;56.70
6666;DHT22;3369;49.906;8.598;2023-07-13T16:40:05;24.60;56.70
6666;DHT22;3369;49.906;8.598;2023-07-13T16:42:41;24.60;57.10
6666;DHT22;3369;49.906;8.598;2023-07-13T16:45:11;24.60;57.40
6666;DHT22;3369;49.906;8.598;2023-07-13T16:47:37;24.60;57.20
6666;DHT22;3369;49.906;8.598;2023-07-13T16:50:14;24.60;57.00
6666;DHT22;3369;49.906;8.598;2023-07-13T16:52:40;24.60;57.50
6666;DHT22;3369;49.906;8.598;2023-07-13T16:55:10;24.50;57.20
6666;DHT22;3369;49.906;8.598;2023-07-13T16:57:36;24.50;57.00
6666;DHT22;3369;49.906;8.598;2023-07-13T17:00:18;24.50;57.20